Time;durP1;ratioP1;P1;durP2;ratioP2;P2;SDS_P1;SDS_P2;PMS_P1;PMS_P2;Temp;Humidity;BMP_temperature;BMP_pressure;BME280_temperature;BME280_humidity;BME280_pressure;Samples;Min_cycle;Max_cycle;Signal;HPM_P1;HPM_P2
2022/03/12 00:10:08;;;;;;;19.00;10.23;;;;;;;4.88;38.51;100606.59;5132075;23;20061;-94
2022/03/12 00:12:51;;;;;;;16.17;9.50;;;;;;;4.86;38.16;100608.44;4980607;28;20045;-91
2022/03/12 00:18:20;;;;;;;14.90;9.52;;;;;;;4.78;37.27;100581.47;5473100;23;20050;-93
2022/03/12 00:22:05;;;;;;;;;;;;;;;;;;;;;
2022/03/12 00:25:13;;;;;;;14.20;7.63;;;;;;;5.21;35.85;100640.03;4953889;28;20051;-95
2022/03/12 00:35:29;;;;;;;;;;;;;;;;;;;;;
2022/03/12 00:39:03;;;;;;;10.75;6.97;;;;;;;5.02;33.61;100585.34;4919516;29;20134;-92
2022/03/12 00:41:59;;;;;;;10.13;5.95;;;;;;;5.26;32.72;100590.91;4951241;28;20079;-94
2022/03/12 00:52:36;;;;;;;9.10;6.03;;;;;;;5.87;31.44;100635.94;4864693;29;20057;-94
2022/03/12 00:55:44;;;;;;;9.75;6.32;;;;;;;5.67;31.38;100598.78;4900706;29;20052;-93
2022/03/12 00:58:47;;;;;;;10.30;6.40;;;;;;;5.90;31.00;100644.66;4890744;29;20310;-94
2022/03/12 01:14:42;;;;;;;;;;;;;;;;;;;;;
2022/03/12 01:26:34;;;;;;;11.57;6.00;;;;;;;5.77;31.04;100647.56;5243295;23;20115;-95
2022/03/12 01:29:59;;;;;;;11.00;6.38;;;;;;;5.63;31.14;100629.50;4970990;28;20043;-92
2022/03/12 01:33:23;;;;;;;11.40;5.97;;;;;;;5.45;30.98;100598.41;4908786;29;20065;-94
2022/03/12 01:36:47;;;;;;;;;;;;;;;;;;;;;
2022/03/12 01:40:04;;;;;;;9.13;5.97;;;;;;;5.63;30.74;100645.25;4828967;29;20077;-93
2022/03/12 01:43:32;;;;;;;;;;;;;;;;;;;;;
2022/03/12 01:46:55;;;;;;;10.55;6.10;;;;;;;5.62;31.76;100659.28;4815241;29;20253;-95
2022/03/12 01:50:57;;;;;;;;;;;;;;;;;;;;;
2022/03/12 01:54:20;;;;;;;;;;;;;;;;;;;;;
2022/03/12 02:04:33;;;;;;;;;;;;;;;;;;;;;
2022/03/12 02:07:35;;;;;;;;;;;;;;;;;;;;;
2022/03/12 02:11:21;;;;;;;;;;;;;;;;;;;;;
2022/03/12 02:18:15;;;;;;;12.05;6.80;;;;;;;5.07;32.88;100625.47;4796219;29;20058;-94
2022/03/12 02:22:03;;;;;;;;;;;;;;;;;;;;;
2022/03/12 02:24:55;;;;;;;8.80;6.00;;;;;;;4.86;32.70;100605.81;4769327;30;20088;-94
2022/03/12 02:28:17;;;;;;;;;;;;;;;;;;;;;
2022/03/12 02:31:16;;;;;;;;;;;;;;;;;;;;;
2022/03/12 02:34:30;;;;;;;12.00;6.28;;;;;;;5.13;32.54;100641.09;4820824;29;20065;-94
2022/03/12 02:37:33;;;;;;;11.13;6.13;;;;;;;5.27;32.08;100665.31;4880305;29;20377;-95
2022/03/12 02:41:10;;;;;;;9.65;5.95;;;;;;;5.19;31.90;100673.34;4948691;29;20058;-93
2022/03/12 02:46:53;;;;;;;10.02;5.85;;;;;;;4.88;31.98;100628.47;4940533;29;19927;-94
2022/03/12 02:53:56;;;;;;;11.75;6.22;;;;;;;4.87;31.58;100624.16;4847384;29;20066;-95
2022/03/12 02:57:46;;;;;;;9.27;5.90;;;;;;;5.08;31.87;100640.31;4933877;29;20051;-93
2022/03/12 03:00:53;;;;;;;11.68;6.10;;;;;;;5.11;31.61;100648.13;4949018;29;20385;-93
2022/03/12 03:03:47;;;;;;;10.40;5.93;;;;;;;4.88;32.08;100627.59;4946415;28;20063;-94
2022/03/12 03:07:09;;;;;;;;;;;;;;;;;;;;;
2022/03/12 03:10:05;;;;;;;8.57;6.05;;;;;;;5.01;32.52;100665.84;4945544;29;20095;-93
2022/03/12 03:13:16;;;;;;;12.30;6.50;;;;;;;4.83;32.26;100637.34;4944462;29;20130;-94
2022/03/12 03:16:41;;;;;;;;;;;;;;;;;;;;;
2022/03/12 03:30:19;;;;;;;8.68;5.70;;;;;;;4.84;31.64;100647.81;6246223;22;1985413;-92
2022/03/12 03:33:33;;;;;;;;;;;;;;;;;;;;;
2022/03/12 03:36:37;;;;;;;9.63;5.60;;;;;;;5.09;32.09;100713.78;6273045;22;20019;-93
2022/03/12 03:39:35;;;;;;;11.15;6.57;;;;;;;4.84;32.07;100662.69;6286630;22;20339;-93
2022/03/12 03:42:21;;;;;;;8.80;6.10;;;;;;;5.12;32.53;100721.63;6292986;22;20027;-93
2022/03/12 03:45:32;;;;;;;9.55;5.82;;;;;;;5.10;31.99;100723.41;6269383;22;20030;-94
2022/03/12 03:48:20;;;;;;;9.65;6.03;;;;;;;5.10;32.21;100728.66;6273522;22;20055;-94
2022/03/12 03:51:07;;;;;;;9.80;6.25;;;;;;;4.74;32.32;100675.09;6295187;22;20012;-94
2022/03/12 03:53:48;;;;;;;10.55;6.43;;;;;;;4.76;32.53;100699.53;6299468;22;20028;-94
2022/03/12 03:56:39;;;;;;;9.13;6.00;;;;;;;4.72;32.82;100699.66;6295629;22;20070;-95
2022/03/12 03:59:44;;;;;;;;;;;;;;;;;;;;;
2022/03/12 04:02:30;;;;;;;8.77;6.07;;;;;;;4.73;32.20;100706.59;6264790;22;20019;-93
2022/03/12 04:05:47;;;;;;;9.23;6.15;;;;;;;4.82;33.12;100741.44;6165827;23;20022;-93
2022/03/12 04:08:42;;;;;;;10.57;6.00;;;;;;;4.81;32.91;100730.97;6162885;23;20020;-93
2022/03/12 04:12:05;;;;;;;10.55;6.60;;;;;;;4.45;32.59;100673.00;6164391;23;20013;-94
2022/03/12 04:14:37;;;;;;;7.60;5.60;;;;;;;4.45;33.13;100682.63;6165143;23;20025;-92
2022/03/12 04:17:24;;;;;;;;;;;;;;;4.76;33.29;100745.91;6141586;23;20022;-93
2022/03/12 04:20:32;;;;;;;;;;;;;;;;;;;;;
2022/03/12 04:23:47;;;;;;;;;;;;;;;;;;;;;
2022/03/12 04:26:34;;;;;;;;;;;;;;;;;;;;;
2022/03/12 04:29:27;;;;;;;7.75;5.65;;;;;;;4.57;33.37;100768.97;6166600;22;20020;-95
2022/03/12 04:32:10;;;;;;;8.52;5.80;;;;;;;4.28;33.96;100735.34;6267760;23;20004;-93
2022/03/12 04:34:59;;;;;;;10.70;5.97;;;;;;;4.38;33.72;100778.03;6262919;22;20090;-94
2022/03/12 04:38:19;;;;;;;10.52;6.28;;;;;;;4.23;34.17;100748.53;6253872;22;20031;-93
2022/03/12 04:41:17;;;;;;;9.23;5.90;;;;;;;4.33;34.16;100785.09;6258475;22;20100;-93
2022/03/12 04:47:32;;;;;;;;;;;;;;;;;;;;;
2022/03/12 04:50:38;;;;;;;8.88;5.63;;;;;;;3.88;33.87;100717.63;6127226;23;20022;-92
2022/03/12 04:53:45;;;;;;;;;;;;;;;;;;;;;
2022/03/12 04:56:51;;;;;;;10.00;5.88;;;;;;;3.84;34.59;100749.13;6104489;23;20024;-93
2022/03/12 04:59:44;;;;;;;9.25;5.82;;;;;;;3.86;34.13;100745.59;6124768;23;20084;-94
2022/03/12 05:02:28;;;;;;;11.05;6.72;;;;;;;3.82;34.34;100727.31;6125267;23;20042;-93
2022/03/12 05:05:11;;;;;;;10.60;6.50;;;;;;;4.00;35.05;100773.34;6125556;23;20097;-93
2022/03/12 05:07:46;;;;;;;9.13;5.93;;;;;;;3.77;35.08;100742.25;6161311;23;20016;-93
2022/03/12 05:10:21;;;;;;;7.55;5.53;;;;;;;3.61;35.31;100733.72;6249990;22;20046;-92
2022/03/12 05:13:10;;;;;;;9.02;5.78;;;;;;;3.75;34.95;100763.22;6248715;22;20022;-94
2022/03/12 05:15:44;;;;;;;10.80;6.20;;;;;;;3.73;35.37;100765.00;6247369;22;20031;-93
2022/03/12 05:18:16;;;;;;;9.45;5.57;;;;;;;3.86;34.96;100805.84;6248880;22;20016;-94
2022/03/12 05:20:54;;;;;;;10.52;5.78;;;;;;;3.49;35.34;100749.56;6250785;23;20039;-93
2022/03/12 05:23:30;;;;;;;9.48;6.05;;;;;;;3.40;36.19;100737.47;6247492;23;20163;-92
2022/03/12 05:26:39;;;;;;;;;;;;;;;;;;;;;
2022/03/12 05:29:25;;;;;;;9.18;5.88;;;;;;;3.34;36.51;100741.91;6260748;22;20047;-93
2022/03/12 05:32:13;;;;;;;;;;;;;;;;;;;;;
2022/03/12 05:34:58;;;;;;;7.85;5.50;;;;;;;3.71;35.84;100800.81;6280472;22;20020;-93
2022/03/12 05:37:50;;;;;;;10.43;6.32;;;;;;;3.44;36.27;100762.75;6254038;22;20019;-93
2022/03/12 05:40:31;;;;;;;8.40;5.88;;;;;;;3.37;36.07;100757.59;6280893;22;20039;-93
2022/03/12 05:43:21;;;;;;;8.82;6.20;;;;;;;3.21;36.31;100737.72;6255052;22;20027;-92
2022/03/12 05:46:09;;;;;;;9.95;6.05;;;;;;;3.41;36.32;100772.38;6277870;22;20020;-92
2022/03/12 05:48:52;;;;;;;10.35;5.68;;;;;;;3.30;35.84;100750.69;6277672;22;20023;-94
2022/03/12 05:51:30;;;;;;;8.10;5.82;;;;;;;3.39;35.63;100768.91;6281039;22;20020;-93
2022/03/12 05:54:02;;;;;;;9.10;5.70;;;;;;;3.25;35.76;100750.75;6285881;22;20008;-92
2022/03/12 05:56:54;;;;;;;10.70;6.05;;;;;;;3.16;35.73;100749.09;6292680;22;20038;-93
2022/03/12 05:59:33;;;;;;;10.68;5.40;;;;;;;3.44;35.86;100795.91;6289804;22;20016;-92
2022/03/12 06:02:02;;;;;;;8.30;5.55;;;;;;;3.42;35.47;100793.31;6284076;22;20431;-92
2022/03/12 06:04:43;;;;;;;12.45;5.97;;;;;;;3.36;36.24;100782.03;6255615;22;20388;-91
2022/03/12 06:07:24;;;;;;;8.90;5.65;;;;;;;3.52;35.52;100813.25;6279357;22;20028;-92
2022/03/12 06:10:02;;;;;;;9.30;5.05;;;;;;;3.41;35.39;100788.09;6279527;22;20015;-92
2022/03/12 06:12:47;;;;;;;11.05;6.00;;;;;;;3.21;35.65;100756.03;6219324;22;20058;-92
2022/03/12 06:15:39;;;;;;;9.48;5.70;;;;;;;3.42;35.39;100779.34;6255087;22;20039;-92
2022/03/12 06:18:17;;;;;;;9.05;5.95;;;;;;;3.37;35.21;100778.53;6280492;22;20020;-92
2022/03/12 06:20:47;;;;;;;10.05;5.30;;;;;;;3.25;35.07;100763.84;6253455;22;20015;-92
2022/03/12 06:23:31;;;;;;;9.48;6.30;;;;;;;3.56;35.73;100816.69;6280279;22;20020;-93
2022/03/12 06:26:14;;;;;;;8.43;5.55;;;;;;;3.58;35.08;100811.44;6292946;22;20035;-94
2022/03/12 06:29:16;;;;;;;9.80;5.55;;;;;;;3.63;35.60;100818.34;6223685;22;20027;-93
2022/03/12 06:32:00;;;;;;;8.60;5.82;;;;;;;3.56;35.42;100805.38;6287810;22;20050;-94
2022/03/12 06:34:51;;;;;;;8.77;5.80;;;;;;;3.52;35.46;100787.06;6291974;22;20016;-93
2022/03/12 06:37:21;;;;;;;8.75;5.70;;;;;;;3.60;34.74;100787.00;6290750;22;20016;-94
2022/03/12 06:39:55;;;;;;;7.80;5.68;;;;;;;3.78;34.80;100796.34;6292285;22;20015;-93
2022/03/12 06:42:32;;;;;;;8.50;5.53;;;;;;;4.00;34.69;100831.88;6290854;22;20022;-94
2022/03/12 06:45:08;;;;;;;6.85;5.32;;;;;;;3.88;34.41;100809.31;6283840;22;20022;-93
2022/03/12 06:47:49;;;;;;;9.20;5.63;;;;;;;3.77;34.65;100774.53;6281497;22;20024;-93
2022/03/12 06:50:24;;;;;;;9.35;5.78;;;;;;;3.96;34.13;100803.97;6280046;22;20022;-92
2022/03/12 06:52:57;;;;;;;10.18;6.20;;;;;;;4.11;33.99;100808.13;6264366;22;20016;-92
2022/03/12 06:55:32;;;;;;;8.10;5.60;;;;;;;3.97;33.48;100786.47;6286352;22;20035;-94
2022/03/12 06:58:01;;;;;;;7.88;5.50;;;;;;;4.24;33.48;100822.81;6228478;22;20481;-93
2022/03/12 07:00:32;;;;;;;10.82;5.95;;;;;;;4.18;33.95;100808.03;6279297;22;20022;-92
2022/03/12 07:03:08;;;;;;;8.55;5.45;;;;;;;4.37;32.98;100831.34;6253149;22;20386;-93
2022/03/12 07:06:45;;;;;;;9.07;5.57;;;;;;;4.40;33.59;100829.56;6276133;22;20019;-93
2022/03/12 07:09:37;;;;;;;9.38;5.70;;;;;;;4.44;34.09;100825.97;6278743;22;20024;-92
2022/03/12 07:13:36;;;;;;;9.85;5.55;;;;;;;4.55;32.65;100838.97;6257264;22;20022;-92
2022/03/12 07:17:36;;;;;;;9.02;6.18;;;;;;;4.48;32.56;100813.69;6096109;23;20033;-93
2022/03/12 07:20:49;;;;;;;10.98;5.43;;;;;;;4.57;32.60;100816.16;6039007;23;20859;-92
2022/03/12 07:23:17;;;;;;;9.90;6.00;;;;;;;4.46;32.72;100778.75;6077269;23;20386;-92
2022/03/12 07:26:06;;;;;;;8.82;5.55;;;;;;;4.77;32.15;100815.84;6094610;23;20018;-92
2022/03/12 07:29:14;;;;;;;10.25;5.80;;;;;;;4.90;32.16;100846.25;6182046;23;20052;-92
2022/03/12 07:31:55;;;;;;;8.85;6.18;;;;;;;4.82;32.15;100816.66;6177687;23;20064;-91
2022/03/12 07:34:35;;;;;;;9.57;5.70;;;;;;;5.03;31.98;100837.28;6178231;23;20021;-92
2022/03/12 07:38:15;;;;;;;11.10;6.30;;;;;;;5.04;32.12;100802.25;6180569;23;20052;-92
2022/03/12 07:41:27;;;;;;;8.55;5.90;;;;;;;5.43;31.93;100826.06;6120538;23;20079;-92
2022/03/12 07:44:11;;;;;;;8.57;5.75;;;;;;;5.53;32.63;100810.06;6092473;23;20045;-91
2022/03/12 07:46:55;;;;;;;9.65;6.30;;;;;;;5.59;31.23;100809.09;6090540;23;20308;-92
2022/03/12 07:49:35;;;;;;;10.35;6.43;;;;;;;5.76;30.73;100820.13;6096383;23;20128;-93
2022/03/12 07:52:16;;;;;;;10.00;6.18;;;;;;;5.78;30.69;100823.59;6093155;23;20022;-95
2022/03/12 07:54:59;;;;;;;8.35;5.78;;;;;;;5.82;30.71;100832.28;6176647;23;20056;-95
2022/03/12 07:58:07;;;;;;;8.75;6.03;;;;;;;5.95;31.15;100828.53;6189372;23;20027;-94
2022/03/12 08:00:50;;;;;;;8.45;6.13;;;;;;;6.11;30.32;100845.72;6179183;23;20029;-93
2022/03/12 08:04:22;;;;;;;12.00;6.55;;;;;;;6.14;30.66;100855.31;6177053;23;20263;-93
2022/03/12 08:08:22;;;;;;;12.18;6.38;;;;;;;6.05;30.55;100842.34;6182836;23;20036;-92
2022/03/12 08:11:32;;;;;;;9.30;5.75;;;;;;;6.02;30.58;100827.50;6122097;23;20457;-92
2022/03/12 08:14:45;;;;;;;9.18;6.05;;;;;;;6.14;30.35;100831.66;6115883;23;20029;-93
2022/03/12 08:17:50;;;;;;;10.60;5.97;;;;;;;6.34;30.66;100868.88;6160492;23;20021;-92
2022/03/12 08:20:22;;;;;;;10.85;6.30;;;;;;;6.41;30.65;100852.06;6180113;23;20031;-93
2022/03/12 08:22:51;;;;;;;12.05;6.03;;;;;;;6.29;30.66;100805.00;6179680;23;20029;-93
2022/03/12 08:26:41;;;;;;;;;;;;;;;;;;;;;
2022/03/12 08:29:25;;;;;;;9.80;6.35;;;;;;;6.56;29.89;100837.69;6191833;23;20032;-94
2022/03/12 08:32:55;;;;;;;9.82;6.15;;;;;;;6.78;30.10;100859.94;6207728;23;20082;-92
2022/03/12 08:35:43;;;;;;;9.07;5.88;;;;;;;6.73;29.53;100827.63;6210599;23;20455;-92
2022/03/12 08:38:34;;;;;;;11.10;6.65;;;;;;;7.06;29.59;100856.66;6209021;23;20114;-93
2022/03/12 08:41:30;;;;;;;9.70;6.63;;;;;;;7.07;30.20;100843.47;6209260;23;20777;-94
2022/03/12 08:44:21;;;;;;;9.10;6.22;;;;;;;7.15;29.45;100841.47;6199736;23;20021;-93
2022/03/12 08:46:56;;;;;;;9.02;6.28;;;;;;;6.89;29.30;100807.06;6186606;23;20351;-94
2022/03/12 08:49:33;;;;;;;13.50;6.63;;;;;;;7.10;29.68;100847.75;6152165;23;20525;-92
2022/03/12 08:52:16;;;;;;;10.55;6.82;;;;;;;7.15;29.62;100844.09;6157485;23;20021;-93
2022/03/12 08:55:04;;;;;;;12.05;6.97;;;;;;;7.55;29.94;100869.41;6152646;23;20045;-93
2022/03/12 08:58:07;;;;;;;9.00;6.32;;;;;;;7.94;29.62;100881.47;6158329;23;20072;-93
2022/03/12 09:00:41;;;;;;;9.75;6.75;;;;;;;8.43;28.30;100859.81;6158725;23;20101;-94
2022/03/12 09:03:43;;;;;;;11.02;6.53;;;;;;;8.94;28.32;100877.59;6160689;23;20028;-93
2022/03/12 09:06:28;;;;;;;;;;;;;;;;;;;;;
2022/03/12 09:12:43;;;;;;;11.98;7.10;;;;;;;10.21;26.26;100831.66;6159230;23;20468;-96
2022/03/12 09:15:40;;;;;;;11.02;6.72;;;;;;;10.58;25.64;100827.53;6156711;23;20025;-95
2022/03/12 09:18:41;;;;;;;10.85;6.50;;;;;;;11.34;25.22;100858.81;6157650;23;20349;-96
2022/03/12 09:21:41;;;;;;;8.40;6.57;;;;;;;11.50;24.70;100849.28;6157125;23;20017;-96
2022/03/12 09:24:41;;;;;;;10.10;6.72;;;;;;;11.45;25.19;100816.81;6158631;23;20021;-95
2022/03/12 09:35:28;;;;;;;8.20;6.40;;;;;;;12.23;24.30;100790.25;6205921;22;20115;-93
2022/03/12 09:41:06;;;;;;;12.10;7.20;;;;;;;12.67;24.27;100816.47;6176029;23;20024;-93
2022/03/12 09:43:44;;;;;;;10.15;6.80;;;;;;;12.61;23.79;100789.25;6212423;23;20080;-94
2022/03/12 09:46:12;;;;;;;9.95;6.82;;;;;;;12.81;24.52;100793.59;6213909;23;20040;-95
2022/03/12 09:48:53;;;;;;;11.13;7.22;;;;;;;13.38;24.21;100852.75;6216785;23;20016;-95
2022/03/12 09:51:22;;;;;;;9.10;6.60;;;;;;;13.32;24.13;100826.50;6219189;23;20021;-94
2022/03/12 09:53:59;;;;;;;8.95;7.00;;;;;;;13.40;23.87;100810.13;6219883;23;20020;-94
2022/03/12 09:56:34;;;;;;;9.98;6.88;;;;;;;13.59;23.89;100810.88;6219480;23;20024;-94
2022/03/12 09:59:11;;;;;;;11.20;6.93;;;;;;;13.79;24.02;100817.81;6218761;22;20027;-94
2022/03/12 10:01:54;;;;;;;10.38;7.15;;;;;;;14.31;23.20;100824.69;6222654;23;20044;-93
2022/03/12 10:04:31;;;;;;;11.90;7.72;;;;;;;13.97;22.94;100822.16;6228567;22;20020;-93
2022/03/12 10:07:20;;;;;;;10.00;7.03;;;;;;;14.31;23.47;100822.03;6228709;23;20021;-94
2022/03/12 10:09:48;;;;;;;9.57;6.80;;;;;;;14.57;23.02;100793.06;6222222;22;20016;-93
2022/03/12 10:12:26;;;;;;;9.95;7.28;;;;;;;14.77;23.59;100787.47;6223508;23;20800;-94
2022/03/12 10:14:59;;;;;;;11.60;6.40;;;;;;;15.34;23.12;100779.63;6222887;22;20108;-93
2022/03/12 10:17:57;;;;;;;10.05;6.90;;;;;;;15.44;21.61;100778.94;6220389;23;20025;-93
2022/03/12 10:20:28;;;;;;;10.52;6.75;;;;;;;15.55;23.07;100766.78;6230307;23;20195;-94
2022/03/12 10:26:42;;;;;;;8.35;7.10;;;;;;;16.38;22.25;100811.38;6177935;23;20041;-92
2022/03/12 10:29:34;;;;;;;12.87;7.57;;;;;;;16.37;21.87;100831.88;6238741;22;20045;-95
2022/03/12 10:35:05;;;;;;;10.68;7.70;;;;;;;16.70;20.85;100775.41;6223971;22;20047;-92
2022/03/12 10:37:48;;;;;;;8.75;7.22;;;;;;;17.19;20.69;100753.38;6205788;23;20025;-96
2022/03/12 10:40:38;;;;;;;10.85;7.38;;;;;;;17.62;20.35;100772.69;6234461;23;20032;-94
2022/03/12 10:44:00;;;;;;;9.77;7.55;;;;;;;17.83;19.86;100747.06;6233183;22;20036;-95
2022/03/12 10:47:50;;;;;;;10.43;6.70;;;;;;;18.22;19.17;100761.25;6248419;23;20102;-93
2022/03/12 10:50:57;;;;;;;9.43;7.43;;;;;;;18.42;19.22;100751.72;6221224;23;20014;-96
2022/03/12 10:53:47;;;;;;;9.73;8.07;;;;;;;18.60;19.19;100773.69;6242579;22;20024;-96
2022/03/12 10:57:06;;;;;;;9.10;7.32;;;;;;;18.86;19.08;100786.00;6223247;23;20027;-95
2022/03/12 11:00:28;;;;;;;9.05;7.32;;;;;;;18.64;19.61;100797.47;6211238;22;20024;-93
2022/03/12 11:03:11;;;;;;;9.48;6.82;;;;;;;18.43;19.91;100778.44;6174341;22;20248;-94
2022/03/12 11:16:33;;;;;;;9.73;7.90;;;;;;;19.80;18.67;100722.28;6243873;22;20098;-95
2022/03/12 11:19:42;;;;;;;8.55;7.35;;;;;;;20.16;17.95;100780.25;6250180;23;20024;-95
2022/03/12 11:22:23;;;;;;;8.85;7.53;;;;;;;20.60;17.78;100768.59;6246795;23;20058;-93
2022/03/12 11:25:36;;;;;;;11.23;7.32;;;;;;;21.06;16.96;100753.13;6207102;23;20400;-95
2022/03/12 11:28:19;;;;;;;10.65;7.18;;;;;;;20.88;16.92;100759.06;6255279;22;20035;-96
2022/03/12 11:37:15;;;;;;;7.93;7.13;;;;;;;19.73;18.30;100729.09;6153903;23;20018;-94
2022/03/12 11:40:27;;;;;;;8.23;7.13;;;;;;;20.56;17.80;100758.22;6130321;23;20065;-94
2022/03/12 11:43:31;;;;;;;9.93;7.65;;;;;;;21.26;16.96;100777.38;6218708;22;20028;-94
2022/03/12 11:46:28;;;;;;;9.07;7.00;;;;;;;21.14;17.50;100735.31;6252104;23;20020;-96
2022/03/12 11:49:14;;;;;;;8.55;7.20;;;;;;;21.74;16.65;100757.94;6235839;23;20086;-95
2022/03/12 11:52:03;;;;;;;9.95;7.53;;;;;;;21.02;17.17;100752.53;6226211;23;20030;-93
2022/03/12 11:54:46;;;;;;;9.75;7.88;;;;;;;20.04;18.21;100757.06;6011861;23;20047;-94
2022/03/12 11:57:34;;;;;;;8.80;7.05;;;;;;;19.67;18.54;100732.28;6014104;23;20027;-93
2022/03/12 12:04:02;;;;;;;11.15;7.70;;;;;;;19.17;19.68;100704.00;6089018;23;20076;-93
2022/03/12 12:06:44;;;;;;;9.73;8.02;;;;;;;19.54;19.33;100712.72;6153684;23;20101;-93
2022/03/12 12:09:27;;;;;;;11.45;8.10;;;;;;;19.92;19.21;100740.09;6097520;23;20058;-93
2022/03/12 12:12:37;;;;;;;9.18;7.22;;;;;;;19.75;18.98;100728.97;6101691;23;20033;-95
2022/03/12 12:15:29;;;;;;;9.68;7.78;;;;;;;19.72;19.05;100711.25;6085235;23;20418;-94
2022/03/12 12:18:53;;;;;;;11.95;8.40;;;;;;;19.58;18.95;100679.28;6089511;23;20092;-94
2022/03/12 12:21:35;;;;;;;9.13;7.55;;;;;;;20.26;18.87;100680.88;6017381;23;20354;-94
2022/03/12 12:24:44;;;;;;;10.77;7.97;;;;;;;21.45;17.54;100733.53;6097399;23;20024;-95
2022/03/12 12:27:16;;;;;;;7.95;6.93;;;;;;;21.49;18.23;100688.34;6183706;23;20036;-94
2022/03/12 12:29:47;;;;;;;9.10;8.07;;;;;;;22.27;17.46;100714.59;6158503;23;20028;-94
2022/03/12 12:32:26;;;;;;;12.25;7.80;;;;;;;21.71;18.07;100677.38;6159971;23;20116;-94
2022/03/12 12:35:34;;;;;;;8.98;7.88;;;;;;;21.75;18.35;100676.09;6113600;23;20052;-95
2022/03/12 12:38:13;;;;;;;9.38;8.18;;;;;;;22.70;17.06;100711.50;6158863;23;20017;-95
2022/03/12 12:41:06;;;;;;;10.88;8.10;;;;;;;22.46;17.13;100674.13;6180583;23;20037;-95
2022/03/12 12:44:39;;;;;;;8.77;7.85;;;;;;;22.30;17.84;100709.78;6101388;23;20569;-94
2022/03/12 12:47:18;;;;;;;11.75;8.43;;;;;;;22.09;17.98;100651.50;6143395;23;20484;-94
2022/03/12 12:50:04;;;;;;;10.48;8.18;;;;;;;22.40;18.00;100672.00;6137954;23;20100;-94
2022/03/12 12:53:24;;;;;;;9.30;7.97;;;;;;;22.09;18.51;100702.75;6151858;23;20105;-94
2022/03/12 12:59:48;;;;;;;9.88;7.88;;;;;;;23.28;17.25;100679.06;6139601;23;20084;-95
2022/03/12 13:02:42;;;;;;;8.95;8.05;;;;;;;23.88;16.96;100674.13;6131205;23;20026;-95
2022/03/12 13:05:40;;;;;;;9.60;7.95;;;;;;;25.04;15.76;100683.09;6093777;23;20022;-95
2022/03/12 13:08:11;;;;;;;8.90;7.63;;;;;;;24.92;15.68;100651.81;6156623;23;20021;-94
2022/03/12 13:14:53;;;;;;;9.43;7.68;;;;;;;25.53;15.26;100640.00;6160901;23;20029;-95
2022/03/12 13:17:38;;;;;;;8.73;7.82;;;;;;;25.69;15.51;100660.97;6162110;23;20465;-93
2022/03/12 13:20:57;;;;;;;11.23;7.80;;;;;;;26.36;15.34;100664.59;6079885;23;20553;-95
2022/03/12 13:27:42;;;;;;;11.60;8.32;;;;;;;25.09;16.14;100596.75;6045584;23;20024;-95
2022/03/12 13:30:34;;;;;;;8.73;7.70;;;;;;;25.20;16.03;100649.84;6055052;23;20018;-94
2022/03/12 13:33:18;;;;;;;9.27;7.28;;;;;;;25.33;16.17;100625.88;6044523;23;20381;-94
2022/03/12 13:36:02;;;;;;;8.48;7.68;;;;;;;25.67;15.86;100638.56;6033429;23;20039;-94
2022/03/12 13:38:37;;;;;;;9.32;8.23;;;;;;;24.20;16.70;100612.25;6093402;23;20104;-95
2022/03/12 13:41:19;;;;;;;9.73;7.90;;;;;;;22.74;18.08;100589.59;6154689;23;20072;-94
2022/03/12 13:44:02;;;;;;;11.27;8.65;;;;;;;21.58;19.75;100647.94;6130910;23;20101;-94
2022/03/12 13:46:45;;;;;;;12.55;9.20;;;;;;;19.64;21.11;100586.59;6029121;23;20471;-95
2022/03/12 13:49:16;;;;;;;;;;;;;;;18.52;22.88;100642.81;6041696;23;20474;-96
2022/03/12 13:51:57;;;;;;;9.60;7.93;;;;;;;17.67;24.06;100627.75;6040081;23;19925;-94
2022/03/12 13:55:09;;;;;;;11.90;8.90;;;;;;;17.59;24.15;100649.72;6037641;23;20367;-94
2022/03/12 13:58:04;;;;;;;11.63;8.98;;;;;;;17.62;24.58;100652.19;6037714;23;20094;-94
2022/03/12 14:00:46;;;;;;;10.70;8.93;;;;;;;17.44;25.05;100616.00;6038816;23;20020;-93
2022/03/12 14:03:55;;;;;;;12.30;8.77;;;;;;;17.69;24.79;100617.78;6018310;23;20034;-93
2022/03/12 14:06:43;;;;;;;11.95;8.93;;;;;;;18.33;24.28;100626.41;6046868;23;20355;-94
2022/03/12 14:10:28;;;;;;;13.77;9.00;;;;;;;19.76;23.10;100636.66;6057344;23;20106;-93
2022/03/12 14:13:09;;;;;;;11.48;8.82;;;;;;;21.04;20.89;100589.00;6111154;23;20537;-93
2022/03/12 14:19:03;;;;;;;11.93;8.93;;;;;;;21.95;19.77;100605.06;6097797;23;20030;-92
2022/03/12 14:21:47;;;;;;;9.73;8.60;;;;;;;21.70;20.58;100600.19;6121826;23;20025;-94
2022/03/12 14:25:05;;;;;;;9.32;8.10;;;;;;;21.72;21.04;100581.19;6174722;23;20024;-96
2022/03/12 14:27:53;;;;;;;10.63;8.52;;;;;;;22.90;19.79;100617.88;6098647;23;20018;-95
2022/03/12 14:30:25;;;;;;;9.68;8.63;;;;;;;23.50;18.93;100580.50;6094046;23;20022;-95
2022/03/12 14:32:56;;;;;;;12.07;9.27;;;;;;;23.78;18.37;100623.63;6094390;23;20022;-95
2022/03/12 14:35:25;;;;;;;11.65;8.85;;;;;;;23.80;18.43;100609.97;6095254;23;20449;-95
2022/03/12 14:38:06;;;;;;;9.18;8.13;;;;;;;24.27;17.95;100601.69;6083296;23;20059;-94
2022/03/12 14:40:56;;;;;;;;;;;;;;;24.29;18.00;100624.88;6097163;23;20608;-94
2022/03/12 14:43:37;;;;;;;9.65;8.02;;;;;;;24.06;18.25;100594.72;6102371;23;19964;-95
2022/03/12 14:46:08;;;;;;;12.32;8.57;;;;;;;24.57;18.30;100589.59;6159578;23;20025;-95
2022/03/12 14:49:46;;;;;;;9.77;8.60;;;;;;;24.58;17.22;100573.19;6189189;23;20017;-96
2022/03/12 14:56:35;;;;;;;11.73;8.98;;;;;;;23.48;19.27;100623.06;6190450;23;20029;-96
2022/03/12 14:59:52;;;;;;;9.63;8.45;;;;;;;22.93;19.43;100615.72;6190728;23;20073;-95
2022/03/12 15:02:54;;;;;;;;;;;;;;;;;;;;;
2022/03/12 15:05:54;;;;;;;13.48;9.43;;;;;;;20.32;22.09;100553.94;6192375;23;20388;-96
2022/03/12 15:08:32;;;;;;;11.10;8.80;;;;;;;19.89;22.77;100576.38;6199083;23;20023;-96
2022/03/12 15:11:42;;;;;;;12.45;8.88;;;;;;;18.96;24.27;100617.94;6197373;23;20032;-95
2022/03/12 15:14:35;;;;;;;10.98;9.07;;;;;;;18.07;25.06;100599.75;6200312;23;20041;-96
2022/03/12 15:18:00;;;;;;;13.35;9.20;;;;;;;17.79;25.88;100614.31;6206148;23;20031;-96
2022/03/12 15:25:16;;;;;;;;;;;;;;;;;;;;;
2022/03/12 15:28:49;;;;;;;12.85;8.82;;;;;;;16.91;27.63;100604.59;6052646;23;20023;-96
2022/03/12 17:19:55;;;;;;;13.55;9.45;;;;;;;11.68;39.58;100531.94;6193281;23;20029;-96
2022/03/12 17:34:47;;;;;;;17.23;10.20;;;;;;;11.39;39.91;100559.88;6082440;23;20077;-95
2022/03/12 17:37:41;;;;;;;12.68;8.93;;;;;;;11.10;40.26;100526.78;6091601;23;20014;-94
2022/03/12 17:40:45;;;;;;;14.88;9.43;;;;;;;10.96;39.35;100511.53;6121813;23;20036;-94
2022/03/12 17:43:36;;;;;;;15.10;9.57;;;;;;;11.16;38.85;100547.72;6139397;23;20070;-94
2022/03/12 17:46:39;;;;;;;13.02;9.73;;;;;;;11.22;38.50;100566.81;6127410;23;20018;-94
2022/03/12 17:50:10;;;;;;;;;;;;;;;;;;;;;
2022/03/12 18:04:02;;;;;;;14.35;10.52;;;;;;;11.03;37.40;100565.94;6209701;22;20069;-96
2022/03/12 18:12:54;;;;;;;15.98;10.85;;;;;;;10.87;37.12;100549.91;6227740;22;20023;-95
2022/03/12 18:16:00;;;;;;;13.98;10.10;;;;;;;10.58;37.08;100510.63;6179209;23;20017;-95
2022/03/12 18:19:03;;;;;;;17.23;10.98;;;;;;;10.81;37.64;100571.38;6197086;23;20021;-94
2022/03/12 18:51:00;;;;;;;14.68;9.45;;;;;;;10.33;36.49;100589.44;6237692;22;20034;-95
2022/03/12 18:56:57;;;;;;;20.17;10.18;;;;;;;10.13;36.73;100604.31;6219127;22;20323;-94
2022/03/12 19:00:03;;;;;;;;;;;;;;;9.98;37.22;100594.38;6235215;23;20028;-93
